Time;durP1;ratioP1;P1;durP2;ratioP2;P2;SDS_P1;SDS_P2;PMS_P1;PMS_P2;Temp;Humidity;BMP_temperature;BMP_pressure;BME280_temperature;BME280_humidity;BME280_pressure;Samples;Min_cycle;Max_cycle;Signal;HPM_P1;HPM_P2
2021/09/26 00:00:00;;;;;;;10.23;7.70;;;;;;;;;;5053409;28;20449;-55
2021/09/26 00:02:38;;;;;;;14.90;10.67;;;;;;;;;;5063851;28;20485;-62
2021/09/26 00:05:06;;;;;;;11.23;7.60;;;;;;;;;;5067800;28;20476;-57
2021/09/26 00:07:33;;;;;;;12.23;7.10;;;;;;;;;;5066687;28;20522;-55
2021/09/26 00:10:00;;;;;;;10.87;8.27;;;;;;;;;;5074853;28;20901;-61
2021/09/26 00:12:28;;;;;;;9.80;7.27;;;;;;;;;;5071651;28;20469;-52
2021/09/26 00:14:55;;;;;;;6.67;5.50;;;;;;;;;;5074621;28;20465;-56
2021/09/26 00:17:25;;;;;;;6.60;5.00;;;;;;;;;;5072748;28;20479;-59
2021/09/26 00:19:54;;;;;;;7.30;4.63;;;;;;;;;;5074079;28;20449;-58
2021/09/26 00:22:21;;;;;;;10.43;5.10;;;;;;;;;;5072334;28;20496;-56
2021/09/26 00:25:01;;;;;;;9.10;5.30;;;;;;;;;;5075318;28;20457;-54
2021/09/26 00:27:28;;;;;;;7.83;5.43;;;;;;;;;;5074844;28;20448;-58
2021/09/26 00:29:56;;;;;;;8.47;5.40;;;;;;;;;;5074903;28;20476;-57
2021/09/26 00:32:23;;;;;;;9.13;5.63;;;;;;;;;;5073611;28;20457;-57
2021/09/26 00:34:51;;;;;;;6.83;4.83;;;;;;;;;;5070891;28;20852;-55
2021/09/26 00:37:20;;;;;;;5.10;4.33;;;;;;;;;;5074675;28;20467;-61
2021/09/26 00:39:47;;;;;;;5.63;4.87;;;;;;;;;;5065859;28;20470;-58
2021/09/26 00:42:15;;;;;;;6.07;4.87;;;;;;;;;;5053529;28;20520;-59
2021/09/26 00:44:51;;;;;;;6.93;5.00;;;;;;;;;;5066761;28;20851;-56
2021/09/26 00:47:18;;;;;;;10.40;4.90;;;;;;;;;;5074669;28;20457;-57
2021/09/26 00:49:47;;;;;;;9.07;5.87;;;;;;;;;;5071180;28;20457;-59
2021/09/26 00:52:22;;;;;;;7.50;4.90;;;;;;;;;;5061375;28;20458;-54
2021/09/26 00:54:49;;;;;;;6.70;4.20;;;;;;;;;;5054432;28;20449;-58
2021/09/26 00:57:17;;;;;;;8.17;4.50;;;;;;;;;;5054162;28;20465;-55
2021/09/26 00:59:44;;;;;;;6.47;4.33;;;;;;;;;;5054546;28;20521;-60
2021/09/26 01:02:11;;;;;;;5.47;4.70;;;;;;;;;;5060355;28;20457;-57
2021/09/26 01:04:39;;;;;;;6.87;4.73;;;;;;;;;;5074832;28;20457;-59
2021/09/26 01:07:09;;;;;;;5.20;4.13;;;;;;;;;;5073859;28;20580;-50
2021/09/26 01:09:44;;;;;;;6.60;4.53;;;;;;;;;;5074344;28;20737;-58
2021/09/26 01:12:15;;;;;;;7.70;5.10;;;;;;;;;;5074426;28;20444;-60
2021/09/26 01:14:45;;;;;;;6.40;4.37;;;;;;;;;;5075059;28;20483;-59
2021/09/26 01:17:21;;;;;;;5.60;4.07;;;;;;;;;;5074431;28;20499;-55
2021/09/26 01:20:07;;;;;;;6.03;4.80;;;;;;;;;;5074103;28;20452;-56
2021/09/26 01:22:43;;;;;;;9.47;4.73;;;;;;;;;;5074775;28;20481;-59
2021/09/26 01:25:19;;;;;;;6.80;4.40;;;;;;;;;;5073006;28;20474;-61
2021/09/26 01:28:16;;;;;;;6.80;4.50;;;;;;;;;;5074334;28;20455;-58
2021/09/26 01:30:46;;;;;;;7.33;4.63;;;;;;;;;;5073482;28;20465;-56
2021/09/26 01:33:18;;;;;;;5.50;4.00;;;;;;;;;;5074070;28;20480;-58
2021/09/26 01:35:59;;;;;;;7.30;4.90;;;;;;;;;;5072463;28;20501;-60
2021/09/26 01:38:29;;;;;;;6.17;4.50;;;;;;;;;;5074566;28;20448;-53
2021/09/26 01:40:58;;;;;;;7.13;4.43;;;;;;;;;;5074046;28;20440;-55
2021/09/26 01:43:50;;;;;;;5.30;3.83;;;;;;;;;;5074168;28;20472;-58
2021/09/26 01:46:23;;;;;;;9.10;5.17;;;;;;;;;;5054458;28;20462;-56
2021/09/26 01:48:55;;;;;;;7.97;6.50;;;;;;;;;;5061831;28;20465;-56
2021/09/26 01:51:24;;;;;;;11.90;9.10;;;;;;;;;;5074538;28;20468;-53
2021/09/26 01:53:52;;;;;;;11.57;7.00;;;;;;;;;;5072598;28;20495;-56
2021/09/26 01:56:24;;;;;;;14.53;7.93;;;;;;;;;;5063078;28;20437;-55
2021/09/26 01:58:51;;;;;;;9.27;6.40;;;;;;;;;;5061865;28;20508;-58
2021/09/26 02:01:22;;;;;;;11.70;5.40;;;;;;;;;;5063542;28;20492;-60
2021/09/26 02:03:58;;;;;;;12.87;6.60;;;;;;;;;;5072046;28;20457;-58
2021/09/26 02:06:26;;;;;;;10.47;7.07;;;;;;;;;;5074259;28;20464;-57
2021/09/26 02:08:54;;;;;;;9.67;7.10;;;;;;;;;;5072223;28;20457;-60
2021/09/26 02:11:36;;;;;;;15.10;11.17;;;;;;;;;;5072460;28;20514;-58
2021/09/26 02:14:05;;;;;;;12.10;9.17;;;;;;;;;;5066782;28;20468;-57
2021/09/26 02:16:35;;;;;;;18.00;13.97;;;;;;;;;;5067654;28;20524;-56
2021/09/26 02:19:13;;;;;;;9.63;8.23;;;;;;;;;;5073808;28;20444;-51
2021/09/26 02:21:41;;;;;;;7.80;6.10;;;;;;;;;;5061333;28;20524;-55
2021/09/26 02:24:09;;;;;;;12.87;9.60;;;;;;;;;;5059751;28;20475;-54
2021/09/26 02:27:00;;;;;;;9.73;7.60;;;;;;;;;;5067694;28;20464;-57
2021/09/26 02:29:28;;;;;;;8.40;6.50;;;;;;;;;;5071816;28;20461;-58
2021/09/26 02:31:57;;;;;;;8.03;5.23;;;;;;;;;;5066689;28;20491;-56
2021/09/26 02:34:24;;;;;;;6.70;5.20;;;;;;;;;;5058613;28;20454;-49
2021/09/26 02:36:52;;;;;;;6.77;4.50;;;;;;;;;;5073162;28;20452;-57
2021/09/26 02:39:20;;;;;;;6.67;4.77;;;;;;;;;;5074518;28;20619;-57
2021/09/26 02:41:51;;;;;;;5.67;4.97;;;;;;;;;;5073480;28;20516;-60
2021/09/26 02:44:23;;;;;;;9.63;4.77;;;;;;;;;;5072941;28;20477;-57
2021/09/26 02:47:03;;;;;;;6.50;4.40;;;;;;;;;;5073354;28;20441;-56
2021/09/26 02:49:30;;;;;;;5.63;4.27;;;;;;;;;;5071601;28;20527;-60
2021/09/26 02:51:58;;;;;;;6.10;4.47;;;;;;;;;;5072553;28;20464;-55
2021/09/26 02:54:26;;;;;;;10.33;5.17;;;;;;;;;;5072106;28;20527;-57
2021/09/26 02:56:53;;;;;;;6.53;5.20;;;;;;;;;;5073238;28;20495;-58
2021/09/26 02:59:21;;;;;;;7.47;5.07;;;;;;;;;;5058153;28;20466;-53
2021/09/26 03:01:51;;;;;;;8.37;4.83;;;;;;;;;;5052525;28;20482;-54
2021/09/26 03:04:20;;;;;;;6.30;4.80;;;;;;;;;;5055827;28;20476;-60
2021/09/26 03:06:48;;;;;;;8.07;4.90;;;;;;;;;;5053152;28;20473;-58
2021/09/26 03:09:16;;;;;;;7.37;5.77;;;;;;;;;;5071250;28;20468;-59
2021/09/26 03:11:43;;;;;;;6.50;4.60;;;;;;;;;;5070843;28;20469;-53
2021/09/26 03:14:11;;;;;;;5.70;5.00;;;;;;;;;;5073772;28;20468;-55
2021/09/26 03:16:46;;;;;;;10.43;5.97;;;;;;;;;;5072386;28;20477;-56
2021/09/26 03:19:13;;;;;;;7.10;5.83;;;;;;;;;;5072645;28;20583;-54
2021/09/26 03:21:41;;;;;;;6.40;5.00;;;;;;;;;;5071420;28;20489;-57
2021/09/26 03:24:13;;;;;;;5.20;4.63;;;;;;;;;;5072154;28;20499;-57
2021/09/26 03:26:40;;;;;;;6.27;5.30;;;;;;;;;;5067967;28;20504;-54
2021/09/26 03:29:08;;;;;;;5.70;4.23;;;;;;;;;;5072435;28;20457;-56
2021/09/26 03:31:45;;;;;;;6.80;4.80;;;;;;;;;;5070144;28;20461;-52
2021/09/26 03:34:12;;;;;;;6.30;5.20;;;;;;;;;;5072363;28;20456;-52
2021/09/26 03:36:39;;;;;;;6.73;5.40;;;;;;;;;;5066407;28;20501;-55
2021/09/26 03:39:09;;;;;;;7.60;5.07;;;;;;;;;;5071016;28;20488;-56
2021/09/26 03:41:37;;;;;;;6.43;5.40;;;;;;;;;;5072186;28;20495;-55
2021/09/26 03:44:04;;;;;;;11.53;5.13;;;;;;;;;;5070982;28;20473;-55
2021/09/26 03:46:37;;;;;;;6.03;4.70;;;;;;;;;;5069765;28;20480;-61
2021/09/26 03:49:05;;;;;;;6.50;5.40;;;;;;;;;;5059359;28;20492;-54
2021/09/26 03:51:32;;;;;;;5.93;4.83;;;;;;;;;;5072323;28;20445;-58
2021/09/26 03:53:59;;;;;;;8.17;5.57;;;;;;;;;;5067430;28;20461;-60
2021/09/26 03:56:28;;;;;;;8.30;5.50;;;;;;;;;;5071959;28;20457;-57
2021/09/26 03:59:10;;;;;;;6.90;5.60;;;;;;;;;;5071949;28;20532;-59
2021/09/26 04:01:37;;;;;;;8.67;5.30;;;;;;;;;;5073992;28;20445;-60
2021/09/26 04:04:05;;;;;;;7.83;4.90;;;;;;;;;;5059843;28;20476;-57
2021/09/26 04:06:36;;;;;;;7.40;5.00;;;;;;;;;;5053257;28;20521;-60
2021/09/26 04:09:03;;;;;;;8.90;5.60;;;;;;;;;;5068328;28;20468;-60
2021/09/26 04:11:32;;;;;;;7.20;5.50;;;;;;;;;;5071860;28;20449;-57
2021/09/26 04:14:00;;;;;;;10.87;5.50;;;;;;;;;;5070482;28;20493;-57
2021/09/26 04:16:28;;;;;;;7.50;5.00;;;;;;;;;;5071039;28;20505;-58
2021/09/26 04:18:55;;;;;;;7.20;5.40;;;;;;;;;;5074847;28;20468;-58
2021/09/26 04:21:24;;;;;;;10.87;5.83;;;;;;;;;;5070760;28;20484;-61
2021/09/26 04:23:51;;;;;;;8.13;5.20;;;;;;;;;;5073248;28;20522;-62
2021/09/26 04:26:19;;;;;;;9.50;6.00;;;;;;;;;;5074702;28;20468;-56
2021/09/26 04:29:04;;;;;;;8.93;6.47;;;;;;;;;;5075173;28;20453;-56
2021/09/26 04:31:31;;;;;;;6.47;5.37;;;;;;;;;;5065216;28;20477;-57
2021/09/26 04:33:59;;;;;;;8.00;6.10;;;;;;;;;;5055559;28;20442;-55
2021/09/26 04:36:37;;;;;;;8.00;5.83;;;;;;;;;;5069501;28;20544;-58
2021/09/26 04:39:05;;;;;;;8.20;5.87;;;;;;;;;;5076252;28;20518;-52
2021/09/26 04:41:32;;;;;;;9.87;6.17;;;;;;;;;;5074924;28;20883;-55
2021/09/26 04:44:19;;;;;;;6.47;5.73;;;;;;;;;;5074147;28;20469;-52
2021/09/26 04:46:48;;;;;;;7.10;5.70;;;;;;;;;;5072904;28;20460;-61
2021/09/26 04:49:15;;;;;;;9.87;6.20;;;;;;;;;;5075189;28;20449;-60
2021/09/26 04:51:48;;;;;;;9.87;6.63;;;;;;;;;;5075524;28;20491;-61
2021/09/26 04:54:15;;;;;;;10.47;6.50;;;;;;;;;;5074614;28;20480;-59
2021/09/26 04:56:42;;;;;;;12.33;6.97;;;;;;;;;;5075745;28;20518;-55
2021/09/26 04:59:09;;;;;;;12.13;7.37;;;;;;;;;;5073875;28;20516;-61
2021/09/26 05:01:36;;;;;;;7.80;6.90;;;;;;;;;;5074871;28;20489;-57
2021/09/26 05:04:15;;;;;;;9.83;6.90;;;;;;;;;;5073430;28;20477;-59
2021/09/26 05:06:42;;;;;;;8.67;6.40;;;;;;;;;;5074510;28;20453;-57
2021/09/26 05:09:09;;;;;;;11.93;6.47;;;;;;;;;;5075198;28;20479;-56
2021/09/26 05:11:55;;;;;;;7.67;6.07;;;;;;;;;;5074104;28;20879;-56
2021/09/26 05:14:22;;;;;;;10.67;6.17;;;;;;;;;;5053239;28;20445;-60
2021/09/26 05:16:50;;;;;;;8.20;6.40;;;;;;;;;;5056054;28;20454;-56
2021/09/26 05:19:26;;;;;;;8.43;6.37;;;;;;;;;;5074683;28;20779;-60
2021/09/26 05:21:53;;;;;;;7.20;5.87;;;;;;;;;;5073796;28;20460;-59
2021/09/26 05:24:20;;;;;;;8.13;7.27;;;;;;;;;;5074030;28;20489;-60
2021/09/26 05:26:50;;;;;;;7.20;6.17;;;;;;;;;;5070496;28;20504;-56
2021/09/26 05:29:18;;;;;;;8.73;7.20;;;;;;;;;;5073620;28;20460;-56
2021/09/26 05:31:45;;;;;;;10.80;6.43;;;;;;;;;;5063842;28;20501;-56
2021/09/26 05:34:15;;;;;;;10.13;6.83;;;;;;;;;;5061128;28;20637;-61
2021/09/26 05:36:44;;;;;;;9.47;7.20;;;;;;;;;;5073749;28;20461;-53
2021/09/26 05:39:12;;;;;;;11.87;6.13;;;;;;;;;;5074101;28;20465;-59
2021/09/26 05:42:06;;;;;;;9.10;7.40;;;;;;;;;;5073901;28;20469;-57
2021/09/26 05:44:36;;;;;;;10.47;7.03;;;;;;;;;;5072710;28;20457;-55
2021/09/26 05:47:07;;;;;;;7.73;6.60;;;;;;;;;;5073738;28;20852;-58
2021/09/26 05:49:36;;;;;;;9.53;6.80;;;;;;;;;;5072857;28;20460;-53
2021/09/26 05:52:06;;;;;;;7.07;6.37;;;;;;;;;;5073951;28;20543;-57
2021/09/26 05:54:49;;;;;;;8.57;5.87;;;;;;;;;;5073160;28;20511;-61
2021/09/26 05:57:16;;;;;;;8.67;6.43;;;;;;;;;;5072835;28;20778;-58
2021/09/26 05:59:43;;;;;;;7.73;5.97;;;;;;;;;;5071376;28;20499;-58
2021/09/26 06:02:23;;;;;;;8.97;6.63;;;;;;;;;;5073536;28;20749;-59
2021/09/26 06:04:50;;;;;;;7.03;5.93;;;;;;;;;;5071555;28;20497;-57
2021/09/26 06:07:19;;;;;;;7.90;5.80;;;;;;;;;;5072784;28;20492;-53
2021/09/26 06:09:49;;;;;;;11.17;6.10;;;;;;;;;;5073016;28;20465;-58
2021/09/26 06:12:17;;;;;;;9.90;7.20;;;;;;;;;;5073377;28;20458;-61
2021/09/26 06:14:47;;;;;;;9.03;7.00;;;;;;;;;;5059181;28;20430;-59
2021/09/26 06:17:15;;;;;;;9.53;6.00;;;;;;;;;;5065519;28;20464;-56
2021/09/26 06:19:42;;;;;;;8.13;6.70;;;;;;;;;;5053305;28;20515;-53
2021/09/26 06:22:10;;;;;;;9.93;6.90;;;;;;;;;;5060815;28;20465;-54
2021/09/26 06:24:39;;;;;;;7.40;6.60;;;;;;;;;;5073042;28;20477;-52
2021/09/26 06:27:07;;;;;;;11.03;7.60;;;;;;;;;;5071956;28;20468;-53
2021/09/26 06:29:34;;;;;;;8.03;6.03;;;;;;;;;;5072695;28;20441;-60
2021/09/26 06:32:09;;;;;;;12.23;7.00;;;;;;;;;;5071310;28;20475;-53
2021/09/26 06:34:37;;;;;;;8.83;6.57;;;;;;;;;;5072686;28;20487;-59
2021/09/26 06:37:05;;;;;;;12.93;7.20;;;;;;;;;;5073655;28;20464;-55
2021/09/26 06:39:33;;;;;;;8.43;6.13;;;;;;;;;;5072886;28;20453;-56
2021/09/26 06:42:01;;;;;;;9.00;6.40;;;;;;;;;;5072520;28;20554;-57
2021/09/26 06:44:29;;;;;;;10.27;7.73;;;;;;;;;;5071970;28;20523;-58
2021/09/26 06:46:56;;;;;;;7.57;6.77;;;;;;;;;;5072272;28;20461;-57
2021/09/26 06:49:24;;;;;;;8.40;7.10;;;;;;;;;;5065207;28;20944;-53
2021/09/26 06:51:52;;;;;;;7.77;6.97;;;;;;;;;;5074039;28;20448;-59
2021/09/26 06:54:19;;;;;;;8.90;7.20;;;;;;;;;;5074028;28;20437;-58
2021/09/26 06:56:53;;;;;;;11.63;6.97;;;;;;;;;;5074490;28;20429;-58
2021/09/26 06:59:22;;;;;;;8.57;6.73;;;;;;;;;;5072579;28;20541;-56
2021/09/26 07:01:50;;;;;;;10.13;7.57;;;;;;;;;;5073211;28;20460;-57
2021/09/26 07:04:17;;;;;;;13.10;7.40;;;;;;;;;;5069012;28;20505;-61
2021/09/26 07:06:45;;;;;;;10.27;6.90;;;;;;;;;;5071910;28;20759;-53
2021/09/26 07:09:31;;;;;;;8.20;6.80;;;;;;;;;;5070515;28;20489;-54
2021/09/26 07:14:57;;;;;;;10.67;7.23;;;;;;;;;;5071000;28;20491;-53
2021/09/26 07:17:25;;;;;;;9.30;7.27;;;;;;;;;;5068277;28;20457;-61
2021/09/26 07:19:53;;;;;;;8.23;7.43;;;;;;;;;;5071561;28;20457;-61
2021/09/26 07:22:24;;;;;;;12.63;8.17;;;;;;;;;;5070207;28;20595;-58
2021/09/26 07:24:52;;;;;;;12.93;9.60;;;;;;;;;;5069982;28;20561;-57
2021/09/26 07:27:19;;;;;;;10.10;7.97;;;;;;;;;;5064874;28;20526;-56
2021/09/26 07:30:08;;;;;;;15.60;7.87;;;;;;;;;;5051801;28;20454;-56
2021/09/26 07:32:37;;;;;;;12.80;7.80;;;;;;;;;;5062762;28;20483;-57
2021/09/26 07:35:05;;;;;;;8.90;7.37;;;;;;;;;;5052932;28;20461;-61
2021/09/26 07:37:46;;;;;;;9.43;7.17;;;;;;;;;;5067185;28;20495;-58
2021/09/26 07:40:13;;;;;;;10.70;6.97;;;;;;;;;;5069992;28;20484;-57
2021/09/26 07:42:41;;;;;;;10.20;7.43;;;;;;;;;;5052825;28;20461;-61
2021/09/26 07:45:27;;;;;;;12.17;7.87;;;;;;;;;;5057923;28;20469;-54
2021/09/26 07:47:56;;;;;;;8.80;7.30;;;;;;;;;;5065367;28;20497;-57
2021/09/26 07:50:26;;;;;;;8.20;7.13;;;;;;;;;;5070208;28;20475;-59
2021/09/26 07:52:59;;;;;;;11.23;7.43;;;;;;;;;;5073688;28;20471;-59
2021/09/26 07:55:27;;;;;;;8.57;7.53;;;;;;;;;;5062172;28;20550;-60
2021/09/26 07:57:54;;;;;;;10.40;6.80;;;;;;;;;;5054228;28;20454;-58
2021/09/26 08:00:29;;;;;;;7.80;7.00;;;;;;;;;;5069699;28;20864;-58
2021/09/26 08:02:58;;;;;;;9.33;7.63;;;;;;;;;;5074852;28;20514;-53
2021/09/26 08:05:25;;;;;;;11.60;7.00;;;;;;;;;;5073361;28;20465;-56
2021/09/26 08:07:55;;;;;;;8.70;6.63;;;;;;;;;;5073866;28;20483;-58
2021/09/26 08:10:22;;;;;;;8.63;7.10;;;;;;;;;;5070939;28;20474;-57
2021/09/26 08:12:49;;;;;;;10.50;7.30;;;;;;;;;;5072719;28;20458;-56
2021/09/26 08:15:25;;;;;;;9.23;6.90;;;;;;;;;;5058595;28;20719;-56
2021/09/26 08:17:53;;;;;;;8.57;7.67;;;;;;;;;;5067119;28;20498;-57
2021/09/26 08:20:22;;;;;;;12.23;7.67;;;;;;;;;;5055284;28;20453;-60
2021/09/26 08:23:07;;;;;;;7.90;6.87;;;;;;;;;;5064613;28;20473;-59
2021/09/26 08:25:37;;;;;;;16.20;9.83;;;;;;;;;;5074066;28;20449;-56
2021/09/26 08:28:12;;;;;;;11.43;7.83;;;;;;;;;;5073900;28;20468;-59
2021/09/26 08:30:47;;;;;;;13.37;7.70;;;;;;;;;;5072571;28;20440;-62
2021/09/26 08:33:14;;;;;;;13.23;7.77;;;;;;;;;;5056496;28;20718;-60
2021/09/26 08:35:43;;;;;;;11.67;7.60;;;;;;;;;;5059348;28;20460;-58
2021/09/26 08:38:19;;;;;;;10.00;6.93;;;;;;;;;;5054367;28;20764;-60
2021/09/26 08:40:46;;;;;;;9.67;7.87;;;;;;;;;;5065766;28;20488;-56
2021/09/26 08:43:14;;;;;;;8.07;7.20;;;;;;;;;;5074904;28;20712;-49
2021/09/26 08:46:02;;;;;;;9.80;7.07;;;;;;;;;;5074915;28;20469;-58
2021/09/26 08:48:30;;;;;;;7.93;6.87;;;;;;;;;;5072353;28;20476;-56
2021/09/26 08:50:59;;;;;;;9.20;6.83;;;;;;;;;;5074575;28;20449;-57
2021/09/26 08:53:27;;;;;;;12.00;6.50;;;;;;;;;;5075407;28;20434;-59
2021/09/26 08:55:55;;;;;;;7.13;6.40;;;;;;;;;;5074220;28;20473;-60
2021/09/26 08:58:22;;;;;;;9.43;7.40;;;;;;;;;;5074767;28;20457;-55
2021/09/26 09:00:52;;;;;;;9.23;6.80;;;;;;;;;;5073947;28;20469;-58
2021/09/26 09:03:20;;;;;;;9.63;6.90;;;;;;;;;;5073820;28;20477;-57
2021/09/26 09:05:52;;;;;;;9.20;7.50;;;;;;;;;;5054256;28;20676;-56
2021/09/26 09:08:23;;;;;;;9.73;7.70;;;;;;;;;;5056679;28;20487;-60
2021/09/26 09:10:51;;;;;;;10.17;6.93;;;;;;;;;;5073467;28;20472;-56
2021/09/26 09:13:20;;;;;;;9.67;7.10;;;;;;;;;;5073384;28;20468;-54
2021/09/26 09:15:55;;;;;;;9.37;7.13;;;;;;;;;;5074225;28;20457;-56
2021/09/26 09:18:23;;;;;;;16.87;6.23;;;;;;;;;;5070133;28;20449;-55
2021/09/26 09:20:51;;;;;;;10.67;6.33;;;;;;;;;;5070549;28;20491;-57
2021/09/26 09:23:19;;;;;;;12.53;7.00;;;;;;;;;;5073929;28;20477;-59
2021/09/26 09:25:49;;;;;;;7.87;6.53;;;;;;;;;;5070989;28;20438;-57
2021/09/26 09:28:40;;;;;;;7.40;6.50;;;;;;;;;;5064702;28;20453;-58
2021/09/26 09:31:09;;;;;;;9.47;6.07;;;;;;;;;;5068641;28;20464;-56
2021/09/26 09:33:38;;;;;;;8.00;6.27;;;;;;;;;;5068775;28;20446;-56
2021/09/26 09:36:19;;;;;;;7.40;5.50;;;;;;;;;;5053169;28;20474;-57
2021/09/26 09:38:46;;;;;;;11.93;5.40;;;;;;;;;;5070780;28;20464;-59
2021/09/26 09:41:15;;;;;;;6.83;6.03;;;;;;;;;;5069247;28;20465;-56
2021/09/26 09:43:48;;;;;;;8.10;6.00;;;;;;;;;;5071965;28;20527;-62
2021/09/26 09:46:28;;;;;;;9.83;6.00;;;;;;;;;;5070162;28;20469;-60
2021/09/26 09:49:08;;;;;;;7.53;6.40;;;;;;;;;;5071086;28;20515;-52
2021/09/26 09:51:43;;;;;;;9.87;7.50;;;;;;;;;;5070657;28;20472;-55
2021/09/26 09:54:11;;;;;;;8.37;6.13;;;;;;;;;;5052456;28;20457;-57
2021/09/26 09:56:47;;;;;;;9.03;6.43;;;;;;;;;;5070939;28;20453;-58
2021/09/26 09:59:16;;;;;;;7.73;6.13;;;;;;;;;;5071142;28;20483;-58
2021/09/26 10:02:06;;;;;;;7.23;6.40;;;;;;;;;;5080272;28;20460;-57
2021/09/26 10:04:36;;;;;;;9.57;5.63;;;;;;;;;;5069448;28;20493;-58
2021/09/26 10:07:33;;;;;;;7.97;6.23;;;;;;;;;;5060031;28;20450;-54
2021/09/26 10:10:01;;;;;;;10.70;4.73;;;;;;;;;;5050889;28;20505;-52
2021/09/26 10:12:31;;;;;;;7.47;5.57;;;;;;;;;;5048987;28;20458;-56
2021/09/26 10:15:01;;;;;;;7.77;5.27;;;;;;;;;;5052382;28;20477;-59
2021/09/26 10:17:29;;;;;;;6.30;4.60;;;;;;;;;;5053626;28;20458;-58
2021/09/26 10:20:07;;;;;;;6.83;5.70;;;;;;;;;;5052355;28;20481;-58
2021/09/26 10:22:38;;;;;;;5.73;4.27;;;;;;;;;;5051810;28;20763;-53
2021/09/26 10:25:06;;;;;;;6.23;4.73;;;;;;;;;;5066234;28;20519;-55
2021/09/26 10:30:39;;;;;;;6.60;5.90;;;;;;;;;;5070079;28;20496;-55
2021/09/26 10:33:07;;;;;;;14.73;5.70;;;;;;;;;;5056268;28;20480;-59
2021/09/26 10:35:48;;;;;;;6.40;4.40;;;;;;;;;;5067169;28;20470;-58
2021/09/26 10:38:22;;;;;;;4.93;3.50;;;;;;;;;;5070000;28;20449;-60
2021/09/26 10:40:51;;;;;;;7.23;2.90;;;;;;;;;;5067305;28;20455;-56
2021/09/26 10:43:20;;;;;;;6.57;2.93;;;;;;;;;;5049953;28;20686;-57
2021/09/26 10:45:49;;;;;;;5.67;3.43;;;;;;;;;;5052239;28;20527;-59
2021/09/26 10:48:17;;;;;;;6.17;3.40;;;;;;;;;;5067959;28;20484;-58
2021/09/26 10:50:44;;;;;;;5.60;3.10;;;;;;;;;;5067661;28;20471;-58
2021/09/26 10:53:12;;;;;;;6.00;3.63;;;;;;;;;;5067971;28;20464;-58
2021/09/26 10:55:42;;;;;;;5.13;3.13;;;;;;;;;;5066519;28;20465;-55
2021/09/26 10:58:14;;;;;;;5.40;4.17;;;;;;;;;;5067686;28;20522;-56
2021/09/26 11:00:43;;;;;;;6.77;3.53;;;;;;;;;;5056567;28;20466;-61
2021/09/26 11:03:14;;;;;;;7.73;3.43;;;;;;;;;;5055091;28;20453;-56
2021/09/26 11:05:45;;;;;;;6.40;3.03;;;;;;;;;;5056103;28;20662;-58
2021/09/26 11:08:15;;;;;;;5.13;3.20;;;;;;;;;;5059015;28;20477;-59
2021/09/26 11:10:53;;;;;;;4.47;3.30;;;;;;;;;;5061538;28;20493;-59
2021/09/26 11:13:22;;;;;;;8.80;3.43;;;;;;;;;;5047661;28;20461;-56
2021/09/26 11:16:11;;;;;;;8.73;4.20;;;;;;;;;;5065392;28;20515;-58
2021/09/26 11:18:55;;;;;;;8.80;4.00;;;;;;;;;;5064206;28;20477;-55
2021/09/26 11:21:43;;;;;;;7.47;4.67;;;;;;;;;;5064460;28;20453;-55
2021/09/26 11:24:35;;;;;;;7.10;3.53;;;;;;;;;;5059584;28;20719;-58
2021/09/26 11:27:04;;;;;;;5.30;4.33;;;;;;;;;;5063135;28;20488;-59
2021/09/26 11:29:33;;;;;;;9.43;4.67;;;;;;;;;;5054844;28;20446;-55
2021/09/26 11:32:01;;;;;;;10.83;4.27;;;;;;;;;;5069315;28;20564;-57
2021/09/26 11:34:38;;;;;;;6.07;4.23;;;;;;;;;;5068856;28;20465;-58
2021/09/26 11:37:19;;;;;;;11.33;4.30;;;;;;;;;;5062218;28;20730;-58
2021/09/26 11:39:57;;;;;;;5.87;3.43;;;;;;;;;;5069721;28;20487;-59
2021/09/26 11:42:44;;;;;;;6.20;2.97;;;;;;;;;;5066627;28;20461;-60
2021/09/26 11:45:15;;;;;;;5.87;3.00;;;;;;;;;;5070855;28;20713;-57
2021/09/26 11:47:42;;;;;;;7.80;2.93;;;;;;;;;;5068594;28;20485;-57
2021/09/26 11:50:15;;;;;;;5.17;3.10;;;;;;;;;;5065137;28;20525;-53
2021/09/26 11:52:44;;;;;;;4.50;3.13;;;;;;;;;;5049186;28;20454;-60
2021/09/26 11:55:13;;;;;;;9.97;5.10;;;;;;;;;;5056271;28;20483;-57
2021/09/26 11:57:42;;;;;;;8.27;3.67;;;;;;;;;;5061211;28;20479;-54
2021/09/26 12:00:29;;;;;;;13.50;4.43;;;;;;;;;;5064031;28;20457;-59
2021/09/26 12:03:27;;;;;;;5.57;2.97;;;;;;;;;;5067567;28;20483;-56
2021/09/26 12:05:57;;;;;;;6.30;2.93;;;;;;;;;;5059835;28;20493;-54
2021/09/26 12:08:25;;;;;;;4.60;3.10;;;;;;;;;;5061210;28;20448;-55
2021/09/26 12:11:06;;;;;;;5.90;2.70;;;;;;;;;;5065544;28;20531;-59
2021/09/26 12:13:36;;;;;;;6.80;4.20;;;;;;;;;;5049064;28;20587;-53
2021/09/26 12:16:08;;;;;;;6.87;3.93;;;;;;;;;;5069012;28;20468;-60
2021/09/26 12:18:38;;;;;;;5.57;4.03;;;;;;;;;;5060249;28;20508;-58
2021/09/26 12:21:08;;;;;;;4.70;2.63;;;;;;;;;;5066889;28;20490;-57
2021/09/26 12:23:47;;;;;;;5.33;2.83;;;;;;;;;;5066409;28;20476;-60
2021/09/26 12:26:15;;;;;;;8.33;3.30;;;;;;;;;;5067719;28;20981;-56
2021/09/26 12:28:43;;;;;;;10.53;3.57;;;;;;;;;;5065907;28;20457;-58
2021/09/26 12:31:11;;;;;;;5.13;3.50;;;;;;;;;;5068202;28;20460;-57
2021/09/26 12:33:43;;;;;;;6.37;3.00;;;;;;;;;;5063691;28;20858;-58
2021/09/26 12:36:15;;;;;;;5.53;3.03;;;;;;;;;;5067457;28;20540;-59
2021/09/26 12:38:50;;;;;;;5.80;2.27;;;;;;;;;;5063744;28;20461;-55
2021/09/26 12:41:29;;;;;;;7.50;4.50;;;;;;;;;;5063038;28;20440;-58
2021/09/26 12:44:12;;;;;;;7.00;5.50;;;;;;;;;;5062142;28;20510;-58
2021/09/26 12:46:41;;;;;;;5.30;2.93;;;;;;;;;;5066285;28;20464;-50
2021/09/26 12:49:12;;;;;;;9.77;3.43;;;;;;;;;;5064671;28;20481;-61
2021/09/26 12:51:42;;;;;;;8.60;3.70;;;;;;;;;;5062401;28;20599;-53
2021/09/26 12:54:11;;;;;;;5.73;3.60;;;;;;;;;;5066988;28;20445;-59
2021/09/26 12:56:47;;;;;;;4.20;3.00;;;;;;;;;;5065036;28;20542;-60
2021/09/26 12:59:20;;;;;;;5.30;3.00;;;;;;;;;;5071727;28;20433;-59
2021/09/26 13:01:58;;;;;;;6.77;3.57;;;;;;;;;;5061696;28;20622;-59
2021/09/26 13:04:26;;;;;;;5.70;3.50;;;;;;;;;;5061944;28;22408;-51
2021/09/26 13:07:01;;;;;;;5.57;3.60;;;;;;;;;;5050070;28;20466;-58
2021/09/26 13:09:37;;;;;;;7.93;4.40;;;;;;;;;;5054515;28;20547;-54
2021/09/26 13:12:24;;;;;;;7.53;3.77;;;;;;;;;;5049290;28;20633;-59
2021/09/26 13:15:12;;;;;;;7.27;5.50;;;;;;;;;;5062098;28;20574;-55
2021/09/26 13:17:46;;;;;;;5.70;3.63;;;;;;;;;;5056160;28;20521;-59
2021/09/26 13:20:59;;;;;;;7.87;6.13;;;;;;;;;;5046656;28;20489;-56
2021/09/26 13:23:30;;;;;;;7.70;4.30;;;;;;;;;;5053963;28;20465;-57
2021/09/26 13:26:00;;;;;;;7.93;4.13;;;;;;;;;;5065232;28;20489;-55
2021/09/26 13:28:28;;;;;;;5.73;3.53;;;;;;;;;;5061280;28;20477;-55
2021/09/26 13:31:18;;;;;;;11.20;4.97;;;;;;;;;;5066242;28;20457;-55
2021/09/26 13:33:46;;;;;;;7.80;4.60;;;;;;;;;;5063466;28;20556;-58
2021/09/26 13:36:16;;;;;;;7.47;3.90;;;;;;;;;;5065820;28;20453;-55
2021/09/26 13:38:53;;;;;;;9.07;5.40;;;;;;;;;;5065181;28;20560;-53
2021/09/26 13:41:23;;;;;;;6.40;3.70;;;;;;;;;;5047201;28;20537;-58
2021/09/26 13:43:58;;;;;;;13.43;9.87;;;;;;;;;;5057055;28;20480;-55
2021/09/26 13:46:28;;;;;;;6.30;4.07;;;;;;;;;;5064373;28;20538;-54
2021/09/26 13:48:57;;;;;;;12.47;6.07;;;;;;;;;;5063746;28;20468;-56
2021/09/26 13:51:30;;;;;;;10.70;7.80;;;;;;;;;;5059234;28;20469;-57
2021/09/26 13:53:59;;;;;;;12.60;6.90;;;;;;;;;;5058821;28;20493;-58
2021/09/26 14:02:10;;;;;;;20.10;14.97;;;;;;;;;;5064873;28;20461;-58
2021/09/26 14:04:38;;;;;;;38.03;27.23;;;;;;;;;;5059421;28;20458;-56
2021/09/26 14:07:05;;;;;;;10.80;7.07;;;;;;;;;;5069298;28;21034;-51
2021/09/26 14:09:38;;;;;;;9.73;5.07;;;;;;;;;;5068547;28;20465;-54
2021/09/26 14:12:06;;;;;;;38.60;25.10;;;;;;;;;;5055454;28;20500;-54
2021/09/26 14:14:44;;;;;;;15.13;10.80;;;;;;;;;;5051958;28;20501;-54
2021/09/26 14:17:17;;;;;;;18.23;11.70;;;;;;;;;;5050332;28;20553;-54
2021/09/26 14:19:52;;;;;;;40.83;25.83;;;;;;;;;;5046765;28;20534;-61
2021/09/26 14:22:20;;;;;;;16.43;10.53;;;;;;;;;;5052281;28;20446;-56
2021/09/26 14:24:51;;;;;;;10.70;8.00;;;;;;;;;;5043473;28;20481;-63
2021/09/26 14:27:35;;;;;;;37.60;21.30;;;;;;;;;;5051671;28;20462;-59
2021/09/26 14:30:09;;;;;;;19.13;10.13;;;;;;;;;;5049353;28;20454;-54
2021/09/26 14:32:38;;;;;;;18.20;11.97;;;;;;;;;;5037563;28;20522;-54
2021/09/26 14:35:06;;;;;;;24.33;12.60;;;;;;;;;;5049667;28;20462;-57
2021/09/26 14:37:37;;;;;;;23.10;13.63;;;;;;;;;;5040553;28;20454;-64
2021/09/26 14:40:05;;;;;;;9.40;5.80;;;;;;;;;;5050727;28;20474;-58
2021/09/26 14:42:32;;;;;;;16.90;11.07;;;;;;;;;;5046617;28;20484;-56
2021/09/26 14:45:00;;;;;;;18.90;10.80;;;;;;;;;;5040124;28;21252;-56
2021/09/26 14:47:44;;;;;;;16.90;9.27;;;;;;;;;;5041252;28;20463;-55
2021/09/26 14:50:14;;;;;;;11.80;8.80;;;;;;;;;;5048887;28;20462;-61
2021/09/26 14:52:42;;;;;;;11.30;6.87;;;;;;;;;;5035673;28;20516;-56
2021/09/26 14:55:12;;;;;;;17.90;10.20;;;;;;;;;;5029215;28;20427;-55
2021/09/26 14:57:40;;;;;;;14.83;10.90;;;;;;;;;;5047717;28;20520;-60
2021/09/26 15:00:12;;;;;;;24.00;17.80;;;;;;;;;;5048960;28;20461;-61
2021/09/26 15:05:43;;;;;;;22.80;14.87;;;;;;;;;;5043403;28;20524;-53
2021/09/26 15:08:11;;;;;;;63.00;53.07;;;;;;;;;;5046619;28;20565;-60
2021/09/26 15:11:07;;;;;;;30.23;23.07;;;;;;;;;;5052057;28;20615;-60
2021/09/26 15:13:37;;;;;;;10.80;6.87;;;;;;;;;;5032230;28;20447;-58
2021/09/26 15:16:08;;;;;;;14.23;11.00;;;;;;;;;;5046817;28;20527;-53
2021/09/26 15:18:37;;;;;;;16.87;11.70;;;;;;;;;;5051993;28;20477;-57